sensor_id;sensor_type;location;lat;lon;timestamp;P1;durP1;ratioP1;P2;durP2;ratioP2
43184;SDS011;28803;52.308;19.096;2023-03-23T00:00:21;22.20;;;11.43;;
43184;SDS011;28803;52.308;19.096;2023-03-23T00:03:07;24.08;;;11.50;;
43184;SDS011;28803;52.308;19.096;2023-03-23T00:05:34;23.23;;;11.35;;
43184;SDS011;28803;52.308;19.096;2023-03-23T00:08:02;26.25;;;13.00;;
43184;SDS011;28803;52.308;19.096;2023-03-23T00:10:29;20.65;;;11.20;;
43184;SDS011;28803;52.308;19.096;2023-03-23T00:12:58;25.10;;;12.00;;
43184;SDS011;28803;52.308;19.096;2023-03-23T00:15:28;24.40;;;12.00;;
43184;SDS011;28803;52.308;19.096;2023-03-23T00:17:59;23.95;;;12.05;;
43184;SDS011;28803;52.308;19.096;2023-03-23T00:20:30;29.40;;;12.38;;
43184;SDS011;28803;52.308;19.096;2023-03-23T00:23:02;22.83;;;12.68;;
43184;SDS011;28803;52.308;19.096;2023-03-23T00:25:29;22.23;;;12.60;;
43184;SDS011;28803;52.308;19.096;2023-03-23T00:27:56;23.05;;;11.40;;
43184;SDS011;28803;52.308;19.096;2023-03-23T00:30:22;22.85;;;11.68;;
43184;SDS011;28803;52.308;19.096;2023-03-23T00:32:48;23.08;;;11.93;;
43184;SDS011;28803;52.308;19.096;2023-03-23T00:35:16;26.35;;;12.35;;
43184;SDS011;28803;52.308;19.096;2023-03-23T00:37:43;24.67;;;12.48;;
43184;SDS011;28803;52.308;19.096;2023-03-23T00:40:09;24.60;;;12.32;;
43184;SDS011;28803;52.308;19.096;2023-03-23T00:42:36;27.48;;;12.98;;
43184;SDS011;28803;52.308;19.096;2023-03-23T00:45:04;23.27;;;11.85;;
43184;SDS011;28803;52.308;19.096;2023-03-23T00:47:36;26.25;;;12.40;;
43184;SDS011;28803;52.308;19.096;2023-03-23T00:50:03;22.88;;;12.75;;
43184;SDS011;28803;52.308;19.096;2023-03-23T00:52:31;23.83;;;10.90;;
43184;SDS011;28803;52.308;19.096;2023-03-23T00:54:57;24.25;;;12.55;;
43184;SDS011;28803;52.308;19.096;2023-03-23T00:57:23;25.15;;;12.55;;
43184;SDS011;28803;52.308;19.096;2023-03-23T00:59:50;25.23;;;11.10;;
43184;SDS011;28803;52.308;19.096;2023-03-23T01:02:17;24.25;;;11.45;;
43184;SDS011;28803;52.308;19.096;2023-03-23T01:04:44;25.45;;;13.32;;
43184;SDS011;28803;52.308;19.096;2023-03-23T01:07:11;23.38;;;12.85;;
43184;SDS011;28803;52.308;19.096;2023-03-23T01:09:43;26.63;;;12.70;;
43184;SDS011;28803;52.308;19.096;2023-03-23T01:12:10;27.15;;;12.50;;
43184;SDS011;28803;52.308;19.096;2023-03-23T01:14:37;22.00;;;11.27;;
43184;SDS011;28803;52.308;19.096;2023-03-23T01:17:03;32.25;;;12.75;;
43184;SDS011;28803;52.308;19.096;2023-03-23T01:19:30;24.30;;;12.90;;
43184;SDS011;28803;52.308;19.096;2023-03-23T01:21:56;22.98;;;12.45;;
43184;SDS011;28803;52.308;19.096;2023-03-23T01:24:23;26.70;;;14.05;;
43184;SDS011;28803;52.308;19.096;2023-03-23T01:26:50;27.30;;;12.82;;
43184;SDS011;28803;52.308;19.096;2023-03-23T01:29:16;24.75;;;12.35;;
43184;SDS011;28803;52.308;19.096;2023-03-23T01:31:43;26.90;;;13.27;;
43184;SDS011;28803;52.308;19.096;2023-03-23T01:34:09;24.33;;;11.98;;
43184;SDS011;28803;52.308;19.096;2023-03-23T01:36:36;29.55;;;13.15;;
43184;SDS011;28803;52.308;19.096;2023-03-23T01:39:03;24.92;;;12.45;;
43184;SDS011;28803;52.308;19.096;2023-03-23T01:41:31;23.63;;;12.30;;
43184;SDS011;28803;52.308;19.096;2023-03-23T01:44:03;21.85;;;11.23;;
43184;SDS011;28803;52.308;19.096;2023-03-23T01:46:49;21.38;;;11.50;;
43184;SDS011;28803;52.308;19.096;2023-03-23T01:49:19;24.15;;;12.75;;
43184;SDS011;28803;52.308;19.096;2023-03-23T01:51:54;23.67;;;12.50;;
43184;SDS011;28803;52.308;19.096;2023-03-23T01:54:24;26.80;;;12.68;;
43184;SDS011;28803;52.308;19.096;2023-03-23T01:56:53;26.42;;;13.02;;
43184;SDS011;28803;52.308;19.096;2023-03-23T01:59:22;26.20;;;12.73;;
43184;SDS011;28803;52.308;19.096;2023-03-23T02:01:51;26.88;;;13.93;;
43184;SDS011;28803;52.308;19.096;2023-03-23T02:04:18;26.75;;;12.82;;
43184;SDS011;28803;52.308;19.096;2023-03-23T02:06:47;25.43;;;12.97;;
43184;SDS011;28803;52.308;19.096;2023-03-23T02:09:14;25.42;;;11.77;;
43184;SDS011;28803;52.308;19.096;2023-03-23T02:11:42;24.35;;;11.95;;
43184;SDS011;28803;52.308;19.096;2023-03-23T02:14:09;23.13;;;11.80;;
43184;SDS011;28803;52.308;19.096;2023-03-23T02:16:51;23.75;;;12.43;;
43184;SDS011;28803;52.308;19.096;2023-03-23T02:30:40;24.25;;;12.38;;
43184;SDS011;28803;52.308;19.096;2023-03-23T02:33:26;27.83;;;13.32;;
43184;SDS011;28803;52.308;19.096;2023-03-23T02:41:19;22.75;;;12.52;;
43184;SDS011;28803;52.308;19.096;2023-03-23T02:43:47;24.95;;;13.05;;
43184;SDS011;28803;52.308;19.096;2023-03-23T02:46:15;22.27;;;12.77;;
43184;SDS011;28803;52.308;19.096;2023-03-23T02:48:42;20.23;;;10.27;;
43184;SDS011;28803;52.308;19.096;2023-03-23T02:51:11;21.00;;;11.23;;
43184;SDS011;28803;52.308;19.096;2023-03-23T02:53:39;20.77;;;10.65;;
43184;SDS011;28803;52.308;19.096;2023-03-23T02:56:08;27.77;;;11.75;;
43184;SDS011;28803;52.308;19.096;2023-03-23T02:58:36;23.75;;;11.73;;
43184;SDS011;28803;52.308;19.096;2023-03-23T03:01:16;22.48;;;11.85;;
43184;SDS011;28803;52.308;19.096;2023-03-23T03:04:05;23.58;;;12.13;;
43184;SDS011;28803;52.308;19.096;2023-03-23T03:06:44;20.15;;;11.65;;
43184;SDS011;28803;52.308;19.096;2023-03-23T03:09:38;22.85;;;12.48;;
43184;SDS011;28803;52.308;19.096;2023-03-23T03:12:36;22.02;;;10.98;;
43184;SDS011;28803;52.308;19.096;2023-03-23T03:15:09;22.17;;;11.35;;
43184;SDS011;28803;52.308;19.096;2023-03-23T03:17:45;25.25;;;12.02;;
43184;SDS011;28803;52.308;19.096;2023-03-23T03:20:26;38.50;;;13.63;;
43184;SDS011;28803;52.308;19.096;2023-03-23T03:22:53;26.30;;;13.35;;
43184;SDS011;28803;52.308;19.096;2023-03-23T03:25:20;23.30;;;12.05;;
43184;SDS011;28803;52.308;19.096;2023-03-23T03:27:47;20.05;;;12.38;;
43184;SDS011;28803;52.308;19.096;2023-03-23T03:30:21;23.63;;;12.10;;
43184;SDS011;28803;52.308;19.096;2023-03-23T03:32:51;21.92;;;12.00;;
43184;SDS011;28803;52.308;19.096;2023-03-23T03:35:22;20.85;;;11.73;;
43184;SDS011;28803;52.308;19.096;2023-03-23T03:37:49;26.38;;;12.05;;
43184;SDS011;28803;52.308;19.096;2023-03-23T03:40:17;23.85;;;11.60;;
43184;SDS011;28803;52.308;19.096;2023-03-23T03:42:45;19.98;;;10.63;;
43184;SDS011;28803;52.308;19.096;2023-03-23T03:45:13;27.27;;;11.73;;
43184;SDS011;28803;52.308;19.096;2023-03-23T03:47:40;23.50;;;10.98;;
43184;SDS011;28803;52.308;19.096;2023-03-23T03:50:07;23.35;;;11.48;;
43184;SDS011;28803;52.308;19.096;2023-03-23T03:52:34;23.15;;;12.38;;
43184;SDS011;28803;52.308;19.096;2023-03-23T03:55:00;23.08;;;10.90;;
43184;SDS011;28803;52.308;19.096;2023-03-23T03:57:26;23.63;;;11.80;;
43184;SDS011;28803;52.308;19.096;2023-03-23T03:59:53;23.92;;;12.52;;
43184;SDS011;28803;52.308;19.096;2023-03-23T04:02:19;22.98;;;12.27;;
43184;SDS011;28803;52.308;19.096;2023-03-23T04:04:47;21.20;;;11.43;;
43184;SDS011;28803;52.308;19.096;2023-03-23T04:07:14;24.98;;;13.18;;
43184;SDS011;28803;52.308;19.096;2023-03-23T04:09:43;25.73;;;13.07;;
43184;SDS011;28803;52.308;19.096;2023-03-23T04:12:12;24.63;;;11.57;;
43184;SDS011;28803;52.308;19.096;2023-03-23T04:14:39;24.13;;;12.90;;
43184;SDS011;28803;52.308;19.096;2023-03-23T04:17:05;19.40;;;11.70;;
43184;SDS011;28803;52.308;19.096;2023-03-23T04:19:35;25.33;;;11.70;;
43184;SDS011;28803;52.308;19.096;2023-03-23T04:22:02;18.33;;;11.20;;
43184;SDS011;28803;52.308;19.096;2023-03-23T04:24:29;19.60;;;11.38;;
43184;SDS011;28803;52.308;19.096;2023-03-23T04:26:57;20.85;;;11.88;;
43184;SDS011;28803;52.308;19.096;2023-03-23T04:29:23;20.15;;;10.93;;
43184;SDS011;28803;52.308;19.096;2023-03-23T04:31:50;21.15;;;10.73;;
43184;SDS011;28803;52.308;19.096;2023-03-23T04:34:18;22.52;;;10.90;;
43184;SDS011;28803;52.308;19.096;2023-03-23T04:36:44;19.80;;;9.82;;
43184;SDS011;28803;52.308;19.096;2023-03-23T04:39:13;18.13;;;9.88;;
43184;SDS011;28803;52.308;19.096;2023-03-23T04:41:41;17.27;;;10.23;;
43184;SDS011;28803;52.308;19.096;2023-03-23T04:44:08;16.25;;;9.98;;
43184;SDS011;28803;52.308;19.096;2023-03-23T04:46:34;17.27;;;8.90;;
43184;SDS011;28803;52.308;19.096;2023-03-23T04:49:00;18.27;;;9.50;;
43184;SDS011;28803;52.308;19.096;2023-03-23T04:51:30;16.85;;;9.18;;
43184;SDS011;28803;52.308;19.096;2023-03-23T04:53:56;18.15;;;9.18;;
43184;SDS011;28803;52.308;19.096;2023-03-23T04:56:22;17.73;;;9.05;;
43184;SDS011;28803;52.308;19.096;2023-03-23T04:58:49;17.58;;;8.80;;
43184;SDS011;28803;52.308;19.096;2023-03-23T05:01:16;17.20;;;9.10;;
43184;SDS011;28803;52.308;19.096;2023-03-23T05:03:43;17.45;;;8.48;;
43184;SDS011;28803;52.308;19.096;2023-03-23T05:06:10;17.02;;;9.45;;
43184;SDS011;28803;52.308;19.096;2023-03-23T05:08:36;15.57;;;8.82;;
43184;SDS011;28803;52.308;19.096;2023-03-23T05:11:05;17.83;;;9.35;;
43184;SDS011;28803;52.308;19.096;2023-03-23T05:13:32;15.77;;;8.70;;
43184;SDS011;28803;52.308;19.096;2023-03-23T05:16:02;18.17;;;8.70;;
43184;SDS011;28803;52.308;19.096;2023-03-23T05:18:30;16.23;;;8.48;;
43184;SDS011;28803;52.308;19.096;2023-03-23T05:20:59;20.80;;;9.95;;
43184;SDS011;28803;52.308;19.096;2023-03-23T05:23:26;16.48;;;9.00;;
43184;SDS011;28803;52.308;19.096;2023-03-23T05:25:53;19.48;;;9.15;;
43184;SDS011;28803;52.308;19.096;2023-03-23T05:28:20;17.05;;;9.55;;
43184;SDS011;28803;52.308;19.096;2023-03-23T05:30:48;15.38;;;9.02;;
43184;SDS011;28803;52.308;19.096;2023-03-23T05:33:14;14.25;;;8.27;;
43184;SDS011;28803;52.308;19.096;2023-03-23T05:35:41;15.52;;;8.50;;
43184;SDS011;28803;52.308;19.096;2023-03-23T05:38:07;17.02;;;8.43;;
43184;SDS011;28803;52.308;19.096;2023-03-23T05:40:33;16.95;;;8.85;;
43184;SDS011;28803;52.308;19.096;2023-03-23T05:43:00;15.40;;;8.38;;
43184;SDS011;28803;52.308;19.096;2023-03-23T05:45:26;17.20;;;8.57;;
43184;SDS011;28803;52.308;19.096;2023-03-23T05:47:52;19.38;;;8.90;;
43184;SDS011;28803;52.308;19.096;2023-03-23T05:50:19;20.95;;;9.88;;
43184;SDS011;28803;52.308;19.096;2023-03-23T05:52:45;14.93;;;8.35;;
43184;SDS011;28803;52.308;19.096;2023-03-23T05:55:12;18.98;;;8.73;;
43184;SDS011;28803;52.308;19.096;2023-03-23T05:57:39;15.38;;;8.10;;
43184;SDS011;28803;52.308;19.096;2023-03-23T06:00:05;14.82;;;8.15;;
43184;SDS011;28803;52.308;19.096;2023-03-23T06:02:46;16.95;;;8.18;;
43184;SDS011;28803;52.308;19.096;2023-03-23T06:05:13;13.18;;;7.55;;
43184;SDS011;28803;52.308;19.096;2023-03-23T06:07:41;12.00;;;6.68;;
43184;SDS011;28803;52.308;19.096;2023-03-23T06:10:08;13.63;;;6.70;;
43184;SDS011;28803;52.308;19.096;2023-03-23T06:12:36;17.60;;;7.22;;
43184;SDS011;28803;52.308;19.096;2023-03-23T06:15:04;13.23;;;7.15;;
43184;SDS011;28803;52.308;19.096;2023-03-23T06:17:32;12.10;;;6.47;;
43184;SDS011;28803;52.308;19.096;2023-03-23T06:19:59;14.80;;;6.93;;
43184;SDS011;28803;52.308;19.096;2023-03-23T06:22:25;13.95;;;7.32;;
43184;SDS011;28803;52.308;19.096;2023-03-23T06:24:52;12.80;;;7.30;;
43184;SDS011;28803;52.308;19.096;2023-03-23T06:27:18;10.95;;;6.57;;
43184;SDS011;28803;52.308;19.096;2023-03-23T06:29:45;13.48;;;6.90;;
43184;SDS011;28803;52.308;19.096;2023-03-23T06:32:12;11.65;;;6.97;;
43184;SDS011;28803;52.308;19.096;2023-03-23T06:34:39;11.25;;;6.40;;
43184;SDS011;28803;52.308;19.096;2023-03-23T06:37:09;12.10;;;7.03;;
43184;SDS011;28803;52.308;19.096;2023-03-23T06:39:35;11.25;;;6.25;;
43184;SDS011;28803;52.308;19.096;2023-03-23T06:42:04;16.48;;;7.25;;
43184;SDS011;28803;52.308;19.096;2023-03-23T06:44:30;11.57;;;6.28;;
43184;SDS011;28803;52.308;19.096;2023-03-23T06:46:57;9.85;;;6.28;;
43184;SDS011;28803;52.308;19.096;2023-03-23T06:49:23;13.07;;;6.40;;
43184;SDS011;28803;52.308;19.096;2023-03-23T06:51:50;12.32;;;6.75;;
43184;SDS011;28803;52.308;19.096;2023-03-23T06:54:16;14.05;;;6.78;;
43184;SDS011;28803;52.308;19.096;2023-03-23T06:56:42;16.02;;;7.18;;
43184;SDS011;28803;52.308;19.096;2023-03-23T06:59:08;13.75;;;6.15;;
43184;SDS011;28803;52.308;19.096;2023-03-23T07:01:35;14.75;;;6.18;;
43184;SDS011;28803;52.308;19.096;2023-03-23T07:04:02;10.75;;;5.63;;
43184;SDS011;28803;52.308;19.096;2023-03-23T07:06:28;12.68;;;6.28;;
43184;SDS011;28803;52.308;19.096;2023-03-23T07:08:54;9.40;;;5.35;;
43184;SDS011;28803;52.308;19.096;2023-03-23T07:11:21;11.15;;;5.80;;
43184;SDS011;28803;52.308;19.096;2023-03-23T07:13:47;12.95;;;5.53;;
43184;SDS011;28803;52.308;19.096;2023-03-23T07:16:16;15.75;;;5.78;;
43184;SDS011;28803;52.308;19.096;2023-03-23T07:18:43;14.27;;;5.57;;
43184;SDS011;28803;52.308;19.096;2023-03-23T07:21:09;10.73;;;4.90;;
43184;SDS011;28803;52.308;19.096;2023-03-23T07:23:36;8.80;;;5.25;;
43184;SDS011;28803;52.308;19.096;2023-03-23T07:26:03;8.07;;;5.22;;
43184;SDS011;28803;52.308;19.096;2023-03-23T07:28:29;10.55;;;5.32;;
43184;SDS011;28803;52.308;19.096;2023-03-23T07:30:56;7.90;;;4.75;;
43184;SDS011;28803;52.308;19.096;2023-03-23T07:33:23;9.48;;;5.22;;
43184;SDS011;28803;52.308;19.096;2023-03-23T07:35:49;8.40;;;5.35;;
43184;SDS011;28803;52.308;19.096;2023-03-23T07:38:15;9.10;;;4.63;;
43184;SDS011;28803;52.308;19.096;2023-03-23T07:40:42;12.93;;;5.25;;
43184;SDS011;28803;52.308;19.096;2023-03-23T07:43:09;14.82;;;5.45;;
43184;SDS011;28803;52.308;19.096;2023-03-23T07:45:36;11.63;;;5.63;;
43184;SDS011;28803;52.308;19.096;2023-03-23T07:48:02;9.90;;;5.20;;
43184;SDS011;28803;52.308;19.096;2023-03-23T07:50:29;8.98;;;4.95;;
43184;SDS011;28803;52.308;19.096;2023-03-23T07:52:55;9.88;;;4.53;;
43184;SDS011;28803;52.308;19.096;2023-03-23T07:55:23;9.10;;;4.50;;
43184;SDS011;28803;52.308;19.096;2023-03-23T07:57:50;7.85;;;4.78;;
43184;SDS011;28803;52.308;19.096;2023-03-23T08:00:19;8.50;;;4.20;;
43184;SDS011;28803;52.308;19.096;2023-03-23T08:02:46;6.95;;;3.75;;
43184;SDS011;28803;52.308;19.096;2023-03-23T08:05:14;8.70;;;4.15;;
43184;SDS011;28803;52.308;19.096;2023-03-23T08:07:41;9.25;;;4.43;;
43184;SDS011;28803;52.308;19.096;2023-03-23T08:10:08;7.85;;;4.22;;
43184;SDS011;28803;52.308;19.096;2023-03-23T08:12:36;11.35;;;4.72;;
43184;SDS011;28803;52.308;19.096;2023-03-23T08:15:04;6.90;;;3.85;;
43184;SDS011;28803;52.308;19.096;2023-03-23T08:17:32;7.60;;;4.40;;
43184;SDS011;28803;52.308;19.096;2023-03-23T08:19:59;9.77;;;4.70;;
43184;SDS011;28803;52.308;19.096;2023-03-23T08:22:26;9.80;;;4.68;;
43184;SDS011;28803;52.308;19.096;2023-03-23T08:24:56;6.88;;;4.18;;
43184;SDS011;28803;52.308;19.096;2023-03-23T08:27:22;8.55;;;3.88;;
43184;SDS011;28803;52.308;19.096;2023-03-23T08:29:48;5.90;;;3.47;;
43184;SDS011;28803;52.308;19.096;2023-03-23T08:32:15;5.85;;;3.10;;
43184;SDS011;28803;52.308;19.096;2023-03-23T08:34:42;8.77;;;3.70;;
43184;SDS011;28803;52.308;19.096;2023-03-23T08:37:08;6.95;;;4.10;;
43184;SDS011;28803;52.308;19.096;2023-03-23T08:39:35;7.05;;;3.67;;
43184;SDS011;28803;52.308;19.096;2023-03-23T08:42:01;6.05;;;3.17;;
43184;SDS011;28803;52.308;19.096;2023-03-23T08:44:28;7.13;;;3.50;;
43184;SDS011;28803;52.308;19.096;2023-03-23T08:46:54;7.00;;;3.15;;
43184;SDS011;28803;52.308;19.096;2023-03-23T08:49:23;6.25;;;3.05;;
43184;SDS011;28803;52.308;19.096;2023-03-23T08:51:50;4.55;;;2.88;;
43184;SDS011;28803;52.308;19.096;2023-03-23T08:54:17;5.70;;;2.85;;
43184;SDS011;28803;52.308;19.096;2023-03-23T08:56:43;6.35;;;2.72;;
43184;SDS011;28803;52.308;19.096;2023-03-23T08:59:09;5.40;;;2.72;;
43184;SDS011;28803;52.308;19.096;2023-03-23T09:01:36;5.10;;;2.63;;
43184;SDS011;28803;52.308;19.096;2023-03-23T09:04:03;6.13;;;3.00;;
43184;SDS011;28803;52.308;19.096;2023-03-23T09:06:29;5.57;;;2.75;;
43184;SDS011;28803;52.308;19.096;2023-03-23T09:08:56;5.32;;;2.83;;
43184;SDS011;28803;52.308;19.096;2023-03-23T09:11:24;7.00;;;3.60;;
43184;SDS011;28803;52.308;19.096;2023-03-23T09:13:51;4.78;;;3.00;;
43184;SDS011;28803;52.308;19.096;2023-03-23T09:16:17;4.93;;;2.83;;
43184;SDS011;28803;52.308;19.096;2023-03-23T09:18:44;5.20;;;2.70;;
43184;SDS011;28803;52.308;19.096;2023-03-23T09:21:11;4.28;;;2.55;;
43184;SDS011;28803;52.308;19.096;2023-03-23T09:23:38;5.25;;;2.67;;
43184;SDS011;28803;52.308;19.096;2023-03-23T09:26:07;5.28;;;2.80;;
43184;SDS011;28803;52.308;19.096;2023-03-23T09:28:33;4.65;;;2.42;;
43184;SDS011;28803;52.308;19.096;2023-03-23T09:31:00;5.28;;;2.88;;
43184;SDS011;28803;52.308;19.096;2023-03-23T09:33:26;5.35;;;2.95;;
43184;SDS011;28803;52.308;19.096;2023-03-23T09:35:58;6.45;;;2.30;;
43184;SDS011;28803;52.308;19.096;2023-03-23T09:38:24;3.17;;;1.77;;
43184;SDS011;28803;52.308;19.096;2023-03-23T09:51:54;3.92;;;2.10;;
43184;SDS011;28803;52.308;19.096;2023-03-23T09:54:33;4.40;;;1.90;;
43184;SDS011;28803;52.308;19.096;2023-03-23T09:57:05;5.10;;;2.10;;
43184;SDS011;28803;52.308;19.096;2023-03-23T09:59:41;4.10;;;2.00;;
43184;SDS011;28803;52.308;19.096;2023-03-23T10:02:18;6.40;;;2.90;;
43184;SDS011;28803;52.308;19.096;2023-03-23T10:04:46;3.88;;;1.92;;
43184;SDS011;28803;52.308;19.096;2023-03-23T10:07:21;3.60;;;2.15;;
43184;SDS011;28803;52.308;19.096;2023-03-23T10:09:55;5.05;;;2.10;;
43184;SDS011;28803;52.308;19.096;2023-03-23T10:17:37;8.07;;;2.40;;
43184;SDS011;28803;52.308;19.096;2023-03-23T10:22:51;2.42;;;1.30;;
43184;SDS011;28803;52.308;19.096;2023-03-23T10:25:28;4.55;;;1.77;;
43184;SDS011;28803;52.308;19.096;2023-03-23T10:28:05;4.85;;;1.73;;
43184;SDS011;28803;52.308;19.096;2023-03-23T10:30:37;3.67;;;1.48;;
43184;SDS011;28803;52.308;19.096;2023-03-23T10:41:12;3.03;;;1.05;;
43184;SDS011;28803;52.308;19.096;2023-03-23T10:43:42;5.55;;;1.05;;
43184;SDS011;28803;52.308;19.096;2023-03-23T10:46:22;3.92;;;1.00;;
43184;SDS011;28803;52.308;19.096;2023-03-23T10:48:52;2.10;;;0.90;;
43184;SDS011;28803;52.308;19.096;2023-03-23T10:51:23;2.17;;;0.93;;
43184;SDS011;28803;52.308;19.096;2023-03-23T10:53:58;1.73;;;0.63;;
43184;SDS011;28803;52.308;19.096;2023-03-23T11:01:38;1.35;;;0.55;;
43184;SDS011;28803;52.308;19.096;2023-03-23T11:04:10;1.00;;;0.50;;
43184;SDS011;28803;52.308;19.096;2023-03-23T11:06:38;1.30;;;0.80;;
43184;SDS011;28803;52.308;19.096;2023-03-23T11:09:11;2.22;;;1.13;;
43184;SDS011;28803;52.308;19.096;2023-03-23T11:11:41;1.65;;;0.73;;
43184;SDS011;28803;52.308;19.096;2023-03-23T11:14:18;1.52;;;0.65;;
43184;SDS011;28803;52.308;19.096;2023-03-23T11:17:00;3.97;;;0.95;;
43184;SDS011;28803;52.308;19.096;2023-03-23T11:19:35;2.15;;;0.73;;
43184;SDS011;28803;52.308;19.096;2023-03-23T11:24:33;1.92;;;0.75;;
43184;SDS011;28803;52.308;19.096;2023-03-23T11:27:00;3.28;;;0.85;;
43184;SDS011;28803;52.308;19.096;2023-03-23T11:29:32;2.67;;;1.00;;
43184;SDS011;28803;52.308;19.096;2023-03-23T11:34:33;2.60;;;0.80;;
43184;SDS011;28803;52.308;19.096;2023-03-23T11:37:02;1.75;;;0.80;;
43184;SDS011;28803;52.308;19.096;2023-03-23T11:39:32;4.05;;;0.90;;
43184;SDS011;28803;52.308;19.096;2023-03-23T11:42:00;3.58;;;0.90;;
43184;SDS011;28803;52.308;19.096;2023-03-23T11:44:35;3.08;;;1.50;;
43184;SDS011;28803;52.308;19.096;2023-03-23T11:47:04;3.03;;;1.40;;
43184;SDS011;28803;52.308;19.096;2023-03-23T11:54:34;3.08;;;1.33;;
43184;SDS011;28803;52.308;19.096;2023-03-23T11:57:01;3.75;;;1.27;;
43184;SDS011;28803;52.308;19.096;2023-03-23T12:07:24;4.70;;;0.93;;
43184;SDS011;28803;52.308;19.096;2023-03-23T12:15:28;2.75;;;0.93;;
43184;SDS011;28803;52.308;19.096;2023-03-23T12:31:12;3.85;;;1.70;;
43184;SDS011;28803;52.308;19.096;2023-03-23T12:36:39;4.50;;;1.67;;
43184;SDS011;28803;52.308;19.096;2023-03-23T12:41:54;3.92;;;1.92;;
43184;SDS011;28803;52.308;19.096;2023-03-23T12:44:26;3.95;;;2.15;;
43184;SDS011;28803;52.308;19.096;2023-03-23T12:59:55;2.95;;;1.33;;
43184;SDS011;28803;52.308;19.096;2023-03-23T13:02:30;6.22;;;1.88;;
43184;SDS011;28803;52.308;19.096;2023-03-23T13:07:45;11.10;;;4.38;;
43184;SDS011;28803;52.308;19.096;2023-03-23T13:10:21;4.30;;;2.10;;
43184;SDS011;28803;52.308;19.096;2023-03-23T13:12:49;3.40;;;1.58;;
43184;SDS011;28803;52.308;19.096;2023-03-23T13:18:07;2.35;;;1.23;;
43184;SDS011;28803;52.308;19.096;2023-03-23T13:23:20;4.22;;;2.17;;
43184;SDS011;28803;52.308;19.096;2023-03-23T13:25:50;5.45;;;1.63;;
43184;SDS011;28803;52.308;19.096;2023-03-23T13:28:21;4.60;;;1.65;;
43184;SDS011;28803;52.308;19.096;2023-03-23T13:30:58;4.00;;;1.55;;
43184;SDS011;28803;52.308;19.096;2023-03-23T13:33:26;6.97;;;2.30;;
43184;SDS011;28803;52.308;19.096;2023-03-23T13:35:55;6.28;;;2.63;;
43184;SDS011;28803;52.308;19.096;2023-03-23T13:38:26;5.45;;;2.20;;
43184;SDS011;28803;52.308;19.096;2023-03-23T13:40:56;4.38;;;1.52;;
43184;SDS011;28803;52.308;19.096;2023-03-23T13:43:26;2.65;;;1.48;;
43184;SDS011;28803;52.308;19.096;2023-03-23T13:45:53;2.22;;;1.15;;
43184;SDS011;28803;52.308;19.096;2023-03-23T13:48:24;3.00;;;1.45;;
43184;SDS011;28803;52.308;19.096;2023-03-23T13:53:22;2.30;;;1.05;;
43184;SDS011;28803;52.308;19.096;2023-03-23T13:55:51;2.28;;;1.13;;
43184;SDS011;28803;52.308;19.096;2023-03-23T13:58:24;2.45;;;1.10;;
43184;SDS011;28803;52.308;19.096;2023-03-23T14:01:09;3.03;;;1.30;;
43184;SDS011;28803;52.308;19.096;2023-03-23T14:03:38;3.88;;;1.35;;
43184;SDS011;28803;52.308;19.096;2023-03-23T14:06:07;5.53;;;1.90;;
43184;SDS011;28803;52.308;19.096;2023-03-23T14:08:38;6.03;;;1.83;;
43184;SDS011;28803;52.308;19.096;2023-03-23T14:11:15;2.00;;;1.13;;
43184;SDS011;28803;52.308;19.096;2023-03-23T14:19:19;3.47;;;2.22;;
43184;SDS011;28803;52.308;19.096;2023-03-23T14:21:51;5.00;;;2.08;;
43184;SDS011;28803;52.308;19.096;2023-03-23T14:26:52;4.47;;;2.20;;
43184;SDS011;28803;52.308;19.096;2023-03-23T14:29:19;36.15;;;13.55;;
43184;SDS011;28803;52.308;19.096;2023-03-23T14:31:49;9.45;;;4.93;;
43184;SDS011;28803;52.308;19.096;2023-03-23T14:34:20;10.98;;;4.65;;
43184;SDS011;28803;52.308;19.096;2023-03-23T14:36:48;20.10;;;8.57;;
43184;SDS011;28803;52.308;19.096;2023-03-23T14:39:19;13.20;;;7.13;;
43184;SDS011;28803;52.308;19.096;2023-03-23T14:41:47;10.40;;;6.10;;
43184;SDS011;28803;52.308;19.096;2023-03-23T14:44:17;4.97;;;3.22;;
43184;SDS011;28803;52.308;19.096;2023-03-23T14:47:06;10.52;;;4.18;;
43184;SDS011;28803;52.308;19.096;2023-03-23T14:49:34;6.75;;;3.58;;
43184;SDS011;28803;52.308;19.096;2023-03-23T14:52:08;6.45;;;3.22;;
43184;SDS011;28803;52.308;19.096;2023-03-23T14:54:34;4.40;;;3.13;;
43184;SDS011;28803;52.308;19.096;2023-03-23T14:57:09;5.57;;;3.28;;
43184;SDS011;28803;52.308;19.096;2023-03-23T14:59:39;6.88;;;3.30;;
43184;SDS011;28803;52.308;19.096;2023-03-23T15:02:06;5.47;;;2.88;;
43184;SDS011;28803;52.308;19.096;2023-03-23T15:04:35;4.82;;;2.80;;
43184;SDS011;28803;52.308;19.096;2023-03-23T15:07:03;6.22;;;3.30;;
43184;SDS011;28803;52.308;19.096;2023-03-23T15:09:30;6.03;;;3.70;;
43184;SDS011;28803;52.308;19.096;2023-03-23T15:11:58;5.70;;;3.58;;
43184;SDS011;28803;52.308;19.096;2023-03-23T15:14:27;7.13;;;4.88;;
43184;SDS011;28803;52.308;19.096;2023-03-23T15:16:56;9.13;;;4.78;;
43184;SDS011;28803;52.308;19.096;2023-03-23T15:21:56;12.32;;;6.07;;
43184;SDS011;28803;52.308;19.096;2023-03-23T15:24:27;8.13;;;4.80;;
43184;SDS011;28803;52.308;19.096;2023-03-23T15:27:23;8.75;;;4.20;;
43184;SDS011;28803;52.308;19.096;2023-03-23T15:29:47;13.38;;;6.22;;
43184;SDS011;28803;52.308;19.096;2023-03-23T15:32:19;11.35;;;5.28;;
43184;SDS011;28803;52.308;19.096;2023-03-23T15:34:46;7.00;;;4.30;;
43184;SDS011;28803;52.308;19.096;2023-03-23T15:37:31;5.30;;;3.00;;
43184;SDS011;28803;52.308;19.096;2023-03-23T15:39:58;5.85;;;3.42;;
43184;SDS011;28803;52.308;19.096;2023-03-23T15:42:32;6.05;;;3.97;;
43184;SDS011;28803;52.308;19.096;2023-03-23T15:50:11;9.63;;;4.13;;
43184;SDS011;28803;52.308;19.096;2023-03-23T15:52:38;9.80;;;3.28;;
43184;SDS011;28803;52.308;19.096;2023-03-23T15:55:27;29.23;;;16.73;;
43184;SDS011;28803;52.308;19.096;2023-03-23T15:57:53;18.73;;;12.00;;
43184;SDS011;28803;52.308;19.096;2023-03-23T16:00:22;8.50;;;6.68;;
43184;SDS011;28803;52.308;19.096;2023-03-23T16:02:55;7.35;;;5.10;;
43184;SDS011;28803;52.308;19.096;2023-03-23T16:05:27;7.07;;;3.45;;
43184;SDS011;28803;52.308;19.096;2023-03-23T16:07:55;6.68;;;3.42;;
43184;SDS011;28803;52.308;19.096;2023-03-23T16:10:23;7.55;;;3.35;;
43184;SDS011;28803;52.308;19.096;2023-03-23T16:12:51;7.05;;;5.72;;
43184;SDS011;28803;52.308;19.096;2023-03-23T16:15:19;8.27;;;4.60;;
43184;SDS011;28803;52.308;19.096;2023-03-23T16:17:47;9.43;;;5.90;;
43184;SDS011;28803;52.308;19.096;2023-03-23T16:20:15;7.20;;;3.97;;
43184;SDS011;28803;52.308;19.096;2023-03-23T16:22:44;8.20;;;3.65;;
43184;SDS011;28803;52.308;19.096;2023-03-23T16:25:12;7.70;;;3.25;;
43184;SDS011;28803;52.308;19.096;2023-03-23T16:27:40;6.35;;;3.75;;
43184;SDS011;28803;52.308;19.096;2023-03-23T16:30:15;9.13;;;3.85;;
43184;SDS011;28803;52.308;19.096;2023-03-23T16:32:43;9.40;;;4.07;;
43184;SDS011;28803;52.308;19.096;2023-03-23T16:35:12;6.72;;;3.63;;
43184;SDS011;28803;52.308;19.096;2023-03-23T16:37:44;4.90;;;2.63;;
43184;SDS011;28803;52.308;19.096;2023-03-23T16:40:12;7.60;;;3.60;;
43184;SDS011;28803;52.308;19.096;2023-03-23T16:42:40;5.43;;;3.33;;
43184;SDS011;28803;52.308;19.096;2023-03-23T16:45:07;4.32;;;2.72;;